Time;durP1;ratioP1;P1;durP2;ratioP2;P2;SDS_P1;SDS_P2;PMS_P1;PMS_P2;Temp;Humidity;BMP_temperature;BMP_pressure;BME280_temperature;BME280_humidity;BME280_pressure;Samples;Min_cycle;Max_cycle;Signal;HPM_P1;HPM_P2
2021/11/04 00:01:06;;;;;;;5.05;4.22;;;7.30;99.90;;;7.11;100.00;100575.81;4170183;28;20050;-66
2021/11/04 00:03:07;;;;;;;6.15;4.80;;;7.40;99.90;;;7.00;100.00;100582.97;4170755;28;20017;-66
2021/11/04 00:05:09;;;;;;;6.28;5.15;;;7.40;99.90;;;6.87;100.00;100570.13;4170481;28;20088;-66
2021/11/04 00:07:12;;;;;;;5.07;4.57;;;7.30;99.90;;;6.93;100.00;100577.44;4170690;28;20485;-66
2021/11/04 00:09:13;;;;;;;6.03;5.00;;;7.40;99.90;;;6.96;100.00;100586.88;4170321;28;20053;-66
2021/11/04 00:11:14;;;;;;;6.07;4.60;;;7.30;99.90;;;6.56;100.00;100521.41;4170549;28;20029;-66
2021/11/04 00:13:15;;;;;;;4.93;4.43;;;7.30;99.90;;;6.86;100.00;100589.47;4170661;28;20116;-66
2021/11/04 00:15:17;;;;;;;6.93;4.72;;;7.30;99.90;;;7.00;100.00;100581.19;4170412;28;20061;-65
2021/11/04 00:17:18;;;;;;;13.05;5.60;;;7.30;99.90;;;7.06;100.00;100588.50;4170197;28;20033;-66
2021/11/04 00:19:19;;;;;;;6.10;4.00;;;7.30;99.90;;;6.96;100.00;100589.50;4170250;28;20551;-66
2021/11/04 00:21:20;;;;;;;7.30;4.25;;;7.30;99.90;;;6.92;100.00;100582.84;4169041;28;20025;-66
2021/11/04 00:23:21;;;;;;;6.90;4.20;;;7.30;99.90;;;6.89;100.00;100589.19;4165607;28;20048;-66
2021/11/04 00:25:22;;;;;;;6.28;4.57;;;7.20;99.90;;;6.75;100.00;100586.16;4170044;28;20040;-66
2021/11/04 00:27:23;;;;;;;6.25;4.72;;;7.20;99.90;;;6.77;100.00;100589.44;4170327;28;20033;-66
2021/11/04 00:29:24;;;;;;;6.53;4.78;;;7.20;99.90;;;6.79;100.00;100582.25;4170203;28;20029;-66
2021/11/04 00:31:26;;;;;;;5.32;4.32;;;7.20;99.90;;;6.85;100.00;100582.56;4170154;28;20489;-66
2021/11/04 00:33:26;;;;;;;6.22;4.40;;;7.20;99.90;;;6.68;100.00;100575.38;4169947;28;20443;-66
2021/11/04 00:35:28;;;;;;;4.80;4.40;;;7.20;99.90;;;6.77;100.00;100578.97;4170039;28;20152;-66
2021/11/04 00:37:29;;;;;;;5.07;4.05;;;7.20;99.90;;;6.70;100.00;100560.31;4170033;28;20029;-66
2021/11/04 00:39:30;;;;;;;7.15;4.85;;;7.10;99.90;;;6.86;100.00;100578.16;4170065;28;20029;-65
2021/11/04 00:41:31;;;;;;;7.85;4.40;;;7.20;99.90;;;6.79;100.00;100577.03;4169854;28;20056;-66
2021/11/04 00:43:32;;;;;;;5.75;4.57;;;7.20;99.90;;;6.76;100.00;100578.13;4170160;28;20022;-66
2021/11/04 00:45:33;;;;;;;5.70;4.97;;;7.10;99.90;;;6.74;100.00;100576.59;4170150;28;20397;-66
2021/11/04 00:47:34;;;;;;;7.88;4.20;;;7.00;99.90;;;6.66;100.00;100567.63;4169851;28;20026;-66
2021/11/04 00:49:35;;;;;;;5.20;4.20;;;7.00;99.90;;;6.65;100.00;100573.84;4169570;28;20551;-66
2021/11/04 00:51:36;;;;;;;5.45;4.50;;;7.00;99.90;;;6.86;100.00;100583.38;4169900;28;20025;-66
2021/11/04 00:53:37;;;;;;;8.30;3.83;;;7.00;99.90;;;6.91;100.00;100589.03;4169983;28;20034;-66
2021/11/04 00:55:38;;;;;;;5.00;3.75;;;7.10;99.90;;;6.74;100.00;100579.22;4169615;28;20509;-66
2021/11/04 00:57:40;;;;;;;4.28;3.75;;;7.10;99.90;;;6.64;100.00;100585.28;4156255;28;20030;-66
2021/11/04 00:59:40;;;;;;;4.57;4.18;;;7.10;99.90;;;6.63;100.00;100581.00;4169775;28;20024;-66
2021/11/04 01:01:41;;;;;;;6.68;4.68;;;7.00;99.90;;;6.78;100.00;100591.13;4169630;28;20493;-66
2021/11/04 01:03:43;;;;;;;8.13;4.30;;;7.10;99.90;;;6.69;100.00;100584.88;4169283;28;20021;-66
2021/11/04 01:05:44;;;;;;;7.00;3.83;;;7.10;99.90;;;6.56;100.00;100572.03;4169608;28;20116;-66
2021/11/04 01:07:45;;;;;;;7.80;4.45;;;7.10;99.90;;;6.81;100.00;100590.84;4169622;28;20018;-66
2021/11/04 01:09:46;;;;;;;4.75;3.75;;;7.10;99.90;;;6.71;100.00;100590.00;4169611;28;20062;-66
2021/11/04 01:11:47;;;;;;;5.88;4.53;;;7.00;99.90;;;6.69;100.00;100596.19;4169573;28;20055;-66
2021/11/04 01:13:48;;;;;;;7.30;4.18;;;7.10;99.90;;;6.73;100.00;100594.13;4168847;28;20040;-66
2021/11/04 01:15:49;;;;;;;4.88;3.83;;;7.10;99.90;;;6.68;100.00;100599.78;4169381;28;20384;-66
2021/11/04 01:17:51;;;;;;;5.32;3.90;;;7.00;99.90;;;6.69;100.00;100598.81;4169469;28;20040;-66
2021/11/04 01:19:52;;;;;;;6.05;4.32;;;7.00;99.90;;;6.64;100.00;100602.78;4169123;28;20025;-66
2021/11/04 01:21:53;;;;;;;6.55;4.20;;;7.00;99.90;;;6.74;100.00;100594.97;4169322;28;20033;-66
2021/11/04 01:23:54;;;;;;;4.97;3.58;;;7.10;99.90;;;6.58;100.00;100595.47;4169315;28;20044;-66
2021/11/04 01:25:55;;;;;;;6.40;4.60;;;7.10;99.90;;;6.56;100.00;100598.25;4169339;28;20079;-66
2021/11/04 01:27:56;;;;;;;6.82;4.57;;;7.00;99.90;;;6.78;100.00;100604.22;4169400;28;20033;-66
2021/11/04 01:29:57;;;;;;;12.07;4.40;;;7.00;99.90;;;6.79;100.00;100611.94;4169227;28;20091;-66
2021/11/04 01:31:58;;;;;;;7.15;4.85;;;7.10;99.90;;;6.79;100.00;100608.47;4169206;28;20056;-66
2021/11/04 01:33:59;;;;;;;6.85;4.63;;;7.10;99.90;;;6.67;100.00;100600.75;4168997;28;20064;-66
2021/11/04 01:36:00;;;;;;;8.07;5.68;;;7.10;99.90;;;6.86;100.00;100599.13;4169075;28;20550;-66
2021/11/04 01:38:03;;;;;;;5.13;4.63;;;7.10;99.90;;;6.91;100.00;100604.78;4169078;28;20068;-66
2021/11/04 01:40:06;;;;;;;5.45;4.57;;;7.20;99.90;;;6.78;100.00;100615.50;4168976;28;20385;-66
2021/11/04 01:42:07;;;;;;;7.07;5.05;;;7.20;99.90;;;6.73;100.00;100620.34;4169035;28;20038;-65
2021/11/04 01:44:08;;;;;;;8.45;6.25;;;7.10;99.90;;;6.58;100.00;100622.50;4168981;28;20024;-66
2021/11/04 01:46:11;;;;;;;8.02;5.07;;;7.20;99.90;;;6.62;100.00;100618.66;4169162;28;20029;-66
2021/11/04 01:48:12;;;;;;;12.60;6.80;;;7.10;99.90;;;6.67;100.00;100611.22;4167516;28;20108;-66
2021/11/04 01:50:14;;;;;;;6.88;5.50;;;7.10;99.90;;;6.74;100.00;100614.16;4156507;28;20131;-66
2021/11/04 01:52:15;;;;;;;7.63;5.20;;;7.20;99.90;;;6.63;100.00;100606.41;4161201;28;20026;-66
2021/11/04 01:54:16;;;;;;;6.70;5.25;;;7.10;99.90;;;6.67;100.00;100613.84;4169063;28;20120;-66
2021/11/04 01:56:18;;;;;;;25.60;5.57;;;7.10;99.90;;;6.82;100.00;100613.47;4168637;28;20213;-66
2021/11/04 01:58:19;;;;;;;7.70;5.32;;;7.10;99.90;;;6.83;100.00;100615.97;4168880;28;20033;-66
2021/11/04 02:00:25;;;;;;;5.72;4.82;;;7.20;99.90;;;6.78;100.00;100615.50;4169012;28;20037;-66
2021/11/04 02:02:30;;;;;;;9.18;4.85;;;7.10;99.90;;;6.71;100.00;100614.41;4168481;28;20054;-66
2021/11/04 02:04:56;;;;;;;8.20;5.45;;;7.10;99.90;;;6.83;100.00;100615.13;4154206;28;20043;-66
2021/11/04 02:07:16;;;;;;;10.73;5.32;;;7.10;99.90;;;6.66;100.00;100611.34;4167743;28;20093;-66
2021/11/04 02:09:36;;;;;;;10.93;5.18;;;7.10;99.90;;;6.77;100.00;100620.91;4167609;28;20034;-66
2021/11/04 02:12:04;;;;;;;6.07;5.47;;;7.10;99.90;;;6.72;100.00;100617.88;4168800;28;20457;-66
2021/11/04 02:14:38;;;;;;;6.75;5.43;;;7.10;99.90;;;6.79;100.00;100625.03;4168358;28;20029;-66
2021/11/04 02:16:41;;;;;;;5.95;4.78;;;7.10;99.90;;;6.75;100.00;100615.78;4183149;28;20021;-66
2021/11/04 02:18:43;;;;;;;11.02;5.75;;;7.10;99.90;;;6.83;100.00;100633.47;4166990;28;20039;-66
2021/11/04 02:21:34;;;;;;;7.93;4.55;;;7.10;99.90;;;6.79;100.00;100624.22;4167663;28;20558;-66
2021/11/04 02:24:01;;;;;;;6.95;4.80;;;7.10;99.90;;;6.66;100.00;100625.28;4167686;28;20542;-66
2021/11/04 02:26:04;;;;;;;9.25;5.45;;;7.10;99.90;;;6.72;100.00;100629.16;4167990;28;20045;-66
2021/11/04 02:28:12;;;;;;;11.13;5.32;;;7.00;99.90;;;6.79;100.00;100626.84;4167482;28;20125;-66
2021/11/04 02:30:14;;;;;;;7.03;4.78;;;7.10;99.90;;;6.67;100.00;100624.31;4167109;28;20112;-66
2021/11/04 02:32:15;;;;;;;6.85;4.32;;;7.10;99.90;;;6.73;100.00;100630.00;4167328;28;20029;-66
2021/11/04 02:34:17;;;;;;;7.75;5.03;;;7.10;99.90;;;6.69;100.00;100625.00;4167967;28;20051;-66
2021/11/04 02:36:19;;;;;;;9.35;4.97;;;7.00;99.90;;;6.71;100.00;100622.28;4168321;28;20037;-66
2021/11/04 02:38:22;;;;;;;9.40;5.07;;;7.00;99.90;;;6.69;100.00;100632.88;4168114;28;20121;-66
2021/11/04 02:40:25;;;;;;;7.72;5.28;;;7.00;99.90;;;6.66;100.00;100633.16;4168466;28;20104;-66
2021/11/04 02:42:27;;;;;;;9.13;5.05;;;7.00;99.90;;;6.58;100.00;100612.03;4168446;28;20061;-66
2021/11/04 02:44:28;;;;;;;5.25;4.75;;;7.00;99.90;;;6.73;100.00;100630.00;4168249;28;20033;-66
2021/11/04 02:46:29;;;;;;;7.28;5.00;;;7.00;99.90;;;6.55;100.00;100633.25;4167019;28;20029;-66
2021/11/04 02:48:31;;;;;;;8.18;5.55;;;7.00;99.90;;;6.67;100.00;100640.06;4167998;28;20025;-66
2021/11/04 02:50:32;;;;;;;7.78;6.03;;;7.10;99.90;;;6.66;100.00;100646.25;4167211;28;20146;-66
2021/11/04 02:52:35;;;;;;;7.60;5.07;;;7.00;99.90;;;6.73;100.00;100650.97;4168339;28;20028;-66
2021/11/04 02:54:37;;;;;;;8.07;5.35;;;7.10;99.90;;;6.58;100.00;100643.47;4168215;28;20026;-66
2021/11/04 02:56:47;;;;;;;6.13;4.97;;;7.30;99.90;;;6.43;100.00;100626.44;4163201;28;20072;-66
2021/11/04 02:58:48;;;;;;;8.90;5.30;;;7.00;99.90;;;6.48;100.00;100639.19;4161684;28;20033;-66
2021/11/04 03:00:59;;;;;;;6.65;4.53;;;7.00;99.90;;;6.45;100.00;100627.13;4168140;28;20420;-66
2021/11/04 03:03:00;;;;;;;8.90;5.22;;;6.90;99.90;;;6.54;100.00;100647.31;4168374;28;20029;-65
2021/11/04 03:05:00;;;;;;;8.88;5.28;;;7.00;99.90;;;6.54;100.00;100642.06;4168165;28;20025;-66
2021/11/04 03:07:01;;;;;;;6.82;5.25;;;7.00;99.90;;;6.47;100.00;100630.47;4168328;28;20061;-66
2021/11/04 03:09:03;;;;;;;5.85;4.57;;;7.00;99.90;;;6.45;100.00;100640.25;4168055;28;20060;-66
2021/11/04 03:11:04;;;;;;;7.43;5.18;;;6.90;99.90;;;6.49;100.00;100649.50;4168413;28;20083;-66
2021/11/04 03:13:06;;;;;;;7.55;5.18;;;6.90;99.90;;;6.39;100.00;100638.16;4168259;28;20025;-66
2021/11/04 03:15:11;;;;;;;6.38;5.05;;;6.90;99.90;;;6.32;100.00;100650.13;4168325;28;20465;-66
2021/11/04 03:17:13;;;;;;;6.63;4.72;;;6.80;99.90;;;6.48;100.00;100652.28;4168084;28;20029;-66
2021/11/04 03:19:18;;;;;;;5.80;5.20;;;6.80;99.90;;;6.50;100.00;100650.34;4166630;28;20025;-66
2021/11/04 03:21:19;;;;;;;6.88;5.28;;;6.90;99.90;;;6.43;100.00;100650.03;4158690;28;20531;-66
2021/11/04 03:23:22;;;;;;;6.13;5.00;;;6.90;99.90;;;6.36;100.00;100651.50;4161839;28;20029;-66
2021/11/04 03:25:23;;;;;;;7.38;4.88;;;6.80;99.90;;;6.48;100.00;100658.31;4167988;28;20025;-66
2021/11/04 03:27:25;;;;;;;4.57;3.97;;;6.80;99.90;;;6.55;100.00;100656.84;4166925;28;20080;-66
2021/11/04 03:29:31;;;;;;;6.50;4.40;;;6.80;99.90;;;6.51;100.00;100655.44;4158567;28;20488;-66
2021/11/04 03:31:38;;;;;;;5.00;4.10;;;6.80;99.90;;;6.41;100.00;100666.84;4163489;28;20443;-66
2021/11/04 03:33:41;;;;;;;7.05;4.10;;;6.80;99.90;;;6.43;100.00;100660.50;4167825;28;20041;-66
2021/11/04 03:35:43;;;;;;;7.03;4.20;;;6.80;99.90;;;6.39;100.00;100664.34;4166972;28;20056;-66
2021/11/04 03:37:48;;;;;;;4.80;4.38;;;6.80;99.90;;;6.35;100.00;100657.72;4163738;28;20370;-66
2021/11/04 03:39:50;;;;;;;6.10;4.45;;;6.80;99.90;;;6.28;100.00;100667.06;4171068;28;20029;-66
2021/11/04 03:41:56;;;;;;;6.00;4.40;;;6.70;99.90;;;6.31;100.00;100673.81;4171099;28;20524;-66
2021/11/04 03:43:57;;;;;;;5.95;4.30;;;6.70;99.90;;;6.44;100.00;100672.66;4171025;28;20112;-66
2021/11/04 03:45:59;;;;;;;9.10;4.32;;;6.80;99.90;;;6.40;100.00;100681.75;4169884;28;20033;-66
2021/11/04 03:48:01;;;;;;;5.07;4.18;;;6.70;99.90;;;6.42;100.00;100674.56;4166800;28;20482;-66
2021/11/04 03:50:05;;;;;;;6.05;4.80;;;6.70;99.90;;;6.47;100.00;100684.66;4156442;28;20112;-66
2021/11/04 03:52:06;;;;;;;9.27;4.40;;;6.80;99.90;;;6.44;100.00;100691.00;4171055;28;20493;-66
2021/11/04 03:54:07;;;;;;;10.93;4.07;;;6.80;99.90;;;6.41;100.00;100683.41;4170825;28;20045;-66
2021/11/04 03:56:08;;;;;;;4.63;3.70;;;6.70;99.90;;;6.37;100.00;100689.84;4169396;28;20034;-66
2021/11/04 03:58:10;;;;;;;7.53;4.78;;;6.80;99.90;;;6.34;100.00;100692.72;4158735;28;20052;-66
2021/11/04 04:00:14;;;;;;;5.50;4.30;;;6.70;99.90;;;6.38;100.00;100693.31;4170862;28;20036;-66
2021/11/04 04:02:15;;;;;;;4.80;3.95;;;6.80;99.90;;;6.34;100.00;100684.03;4170436;28;20556;-66
2021/11/04 04:04:17;;;;;;;5.78;4.25;;;6.70;99.90;;;6.31;100.00;100690.38;4170223;28;20105;-66
2021/11/04 04:06:22;;;;;;;5.82;4.03;;;6.70;99.90;;;6.25;100.00;100688.28;4170630;28;20036;-66
2021/11/04 04:08:23;;;;;;;7.32;4.57;;;6.70;99.90;;;6.17;100.00;100689.88;4170712;28;20099;-66
2021/11/04 04:10:25;;;;;;;5.22;4.53;;;6.70;99.90;;;6.33;100.00;100685.81;4170562;28;20033;-66
2021/11/04 04:12:27;;;;;;;6.13;3.80;;;6.70;99.90;;;6.38;100.00;100696.75;4170423;28;20031;-66
2021/11/04 04:14:28;;;;;;;4.22;3.83;;;6.70;99.90;;;6.34;100.00;100702.38;4170511;28;20034;-66
2021/11/04 04:16:29;;;;;;;4.30;3.90;;;6.70;99.90;;;6.44;100.00;100695.41;4170401;28;20040;-66
2021/11/04 04:18:29;;;;;;;4.97;4.07;;;6.70;99.90;;;6.43;100.00;100696.34;4170163;28;20485;-66
2021/11/04 04:20:30;;;;;;;4.57;3.50;;;6.70;99.90;;;6.33;100.00;100692.88;4170261;28;20053;-66
2021/11/04 04:22:31;;;;;;;4.32;3.47;;;6.70;99.90;;;6.23;100.00;100700.69;4170465;28;20021;-66
2021/11/04 04:24:33;;;;;;;5.57;3.72;;;6.70;99.90;;;6.29;100.00;100694.09;4170366;28;20440;-66
2021/11/04 04:26:34;;;;;;;3.63;3.33;;;6.70;99.90;;;6.25;100.00;100692.69;4170482;28;20489;-66
2021/11/04 04:28:35;;;;;;;4.43;3.67;;;6.80;99.90;;;6.28;100.00;100706.34;4170177;28;20554;-66
2021/11/04 04:30:37;;;;;;;5.20;3.63;;;6.70;99.90;;;6.29;100.00;100697.53;4170343;28;20030;-66
2021/11/04 04:32:38;;;;;;;4.10;3.58;;;6.80;99.90;;;6.43;100.00;100704.22;4170232;28;20178;-66
2021/11/04 04:34:40;;;;;;;6.97;3.70;;;6.80;99.90;;;6.19;100.00;100699.25;4169839;28;20030;-66
2021/11/04 04:36:40;;;;;;;4.88;3.55;;;6.80;99.90;;;6.11;100.00;100699.09;4169932;28;20025;-66
2021/11/04 04:38:41;;;;;;;4.85;3.80;;;6.70;99.90;;;6.41;100.00;100714.00;4170127;28;20064;-66
2021/11/04 04:40:42;;;;;;;5.15;3.47;;;6.80;99.90;;;6.45;100.00;100710.19;4170053;28;20025;-66
2021/11/04 04:42:43;;;;;;;5.53;3.90;;;6.80;99.90;;;6.41;100.00;100708.78;4170013;28;20513;-66
2021/11/04 04:44:44;;;;;;;5.80;3.42;;;6.90;99.90;;;6.41;100.00;100721.88;4169861;28;20485;-66
2021/11/04 04:46:45;;;;;;;5.60;3.70;;;6.90;99.90;;;6.47;100.00;100724.81;4170042;28;20507;-66
2021/11/04 04:48:46;;;;;;;4.57;3.97;;;7.00;99.90;;;6.64;100.00;100725.97;4168667;28;20021;-66
2021/11/04 04:50:47;;;;;;;6.57;2.95;;;7.00;99.90;;;6.73;100.00;100738.31;4169945;28;20017;-66
2021/11/04 04:52:48;;;;;;;4.75;3.45;;;7.00;99.90;;;6.60;100.00;100749.00;4169826;28;20113;-66
2021/11/04 04:54:49;;;;;;;5.32;3.65;;;7.00;99.90;;;6.57;100.00;100751.88;4169864;28;20037;-66
2021/11/04 04:56:50;;;;;;;5.18;3.50;;;7.10;99.90;;;6.64;100.00;100749.56;4169819;28;20021;-66
2021/11/04 04:58:51;;;;;;;6.13;3.83;;;7.00;99.90;;;6.69;100.00;100748.22;4169799;28;20393;-66
2021/11/04 05:00:52;;;;;;;5.78;3.47;;;7.00;99.90;;;6.52;100.00;100751.44;4169637;28;20068;-66
2021/11/04 05:02:53;;;;;;;3.83;3.10;;;7.00;99.90;;;6.54;100.00;100746.88;4169677;28;20025;-66
2021/11/04 05:04:54;;;;;;;3.83;3.42;;;7.00;99.90;;;6.49;100.00;100754.31;4169484;28;20428;-66
2021/11/04 05:06:55;;;;;;;3.53;3.22;;;7.00;99.90;;;6.39;100.00;100747.38;4169669;28;20032;-66
2021/11/04 05:08:56;;;;;;;3.65;3.25;;;6.90;99.90;;;6.55;100.00;100752.97;4169599;28;20022;-66
2021/11/04 05:10:57;;;;;;;5.32;3.50;;;6.90;99.90;;;6.49;100.00;100748.25;4169468;28;20052;-66
2021/11/04 05:12:58;;;;;;;4.40;3.35;;;6.90;99.90;;;6.50;100.00;100765.63;4169646;28;20383;-66
2021/11/04 05:15:00;;;;;;;5.13;3.20;;;6.90;99.90;;;6.50;100.00;100771.72;4169432;28;20041;-66
2021/11/04 05:17:02;;;;;;;5.55;3.33;;;6.80;99.90;;;6.51;100.00;100773.34;4169410;28;20064;-66
2021/11/04 05:19:04;;;;;;;4.30;3.75;;;6.80;99.90;;;6.41;100.00;100764.63;4169269;28;20112;-66
2021/11/04 05:21:05;;;;;;;3.17;2.88;;;6.80;99.90;;;6.38;100.00;100772.75;4169308;28;20021;-66
2021/11/04 05:23:06;;;;;;;3.63;3.33;;;6.80;99.90;;;6.32;100.00;100780.28;4169732;28;20359;-66
2021/11/04 05:25:07;;;;;;;5.80;3.35;;;6.70;99.90;;;6.28;100.00;100784.09;4169263;28;20099;-66
2021/11/04 05:27:09;;;;;;;7.82;3.00;;;6.70;99.90;;;6.22;100.00;100787.22;4169142;28;20025;-66
2021/11/04 05:29:10;;;;;;;8.05;3.38;;;6.60;99.90;;;6.18;100.00;100785.84;4169263;28;20037;-66
2021/11/04 05:31:10;;;;;;;4.85;3.10;;;6.70;99.90;;;6.32;100.00;100781.13;4169213;28;20531;-66
2021/11/04 05:33:11;;;;;;;4.13;3.00;;;6.60;99.90;;;6.28;100.00;100777.06;4168925;28;20029;-66
2021/11/04 05:35:14;;;;;;;4.90;3.85;;;6.70;99.90;;;6.20;100.00;100779.50;4169093;28;20497;-66
2021/11/04 05:37:16;;;;;;;6.35;3.22;;;6.60;99.90;;;6.28;100.00;100784.09;4169209;28;20029;-66
2021/11/04 05:39:17;;;;;;;3.70;3.38;;;6.60;99.90;;;6.17;100.00;100782.38;4169291;28;20385;-66
2021/11/04 05:41:18;;;;;;;4.00;3.45;;;6.60;99.90;;;6.29;100.00;100789.22;4169253;28;20029;-66
2021/11/04 05:43:19;;;;;;;5.13;3.60;;;6.60;99.90;;;6.26;100.00;100794.72;4168871;28;20088;-66
2021/11/04 05:45:20;;;;;;;3.90;3.40;;;6.60;99.90;;;6.15;100.00;100797.41;4169252;28;20488;-66
2021/11/04 05:47:21;;;;;;;3.25;2.95;;;6.60;99.90;;;6.15;100.00;100800.03;4169030;28;20079;-65
2021/11/04 05:49:22;;;;;;;3.15;2.75;;;6.60;99.90;;;6.11;100.00;100794.19;4168729;28;20516;-66
2021/11/04 05:51:23;;;;;;;6.40;2.88;;;6.50;99.90;;;6.17;100.00;100805.97;4168792;28;20026;-66
2021/11/04 05:53:24;;;;;;;4.00;2.83;;;6.50;99.90;;;6.07;100.00;100810.28;4168971;28;20033;-66
2021/11/04 05:55:25;;;;;;;3.20;2.90;;;6.50;99.90;;;6.00;100.00;100811.75;4169096;28;20025;-66
2021/11/04 05:57:27;;;;;;;4.72;2.63;;;6.50;99.90;;;6.01;100.00;100813.38;4168881;28;20079;-66
2021/11/04 05:59:28;;;;;;;10.68;4.00;;;6.50;99.90;;;5.96;100.00;100818.19;4168446;28;20023;-66
2021/11/04 06:01:29;;;;;;;4.10;3.20;;;6.40;99.90;;;5.97;100.00;100820.66;4168829;28;20053;-66
2021/11/04 06:03:30;;;;;;;4.13;3.17;;;6.50;99.90;;;6.26;100.00;100828.78;4168505;28;20032;-65
2021/11/04 06:05:31;;;;;;;5.72;3.00;;;6.50;99.90;;;6.24;100.00;100822.00;4168773;28;20036;-66
2021/11/04 06:07:32;;;;;;;3.88;3.00;;;6.50;99.90;;;6.29;100.00;100831.13;4168760;28;20030;-66
2021/11/04 06:09:33;;;;;;;3.85;2.88;;;6.60;99.90;;;6.14;100.00;100829.78;4168810;28;20030;-66
2021/11/04 06:11:34;;;;;;;4.13;3.22;;;6.60;99.90;;;6.19;100.00;100824.97;4168747;28;20127;-66
2021/11/04 06:13:34;;;;;;;5.93;3.28;;;6.60;99.90;;;6.15;100.00;100826.22;4168756;28;20052;-66
2021/11/04 06:15:35;;;;;;;3.92;3.35;;;6.60;99.90;;;6.14;100.00;100827.16;4168501;28;20060;-66
2021/11/04 06:17:36;;;;;;;5.20;2.78;;;6.60;99.90;;;6.17;100.00;100834.75;4168834;28;20037;-66
2021/11/04 06:19:37;;;;;;;3.85;2.47;;;6.60;99.90;;;6.27;100.00;100835.69;4168626;28;20022;-66
2021/11/04 06:21:38;;;;;;;4.47;2.85;;;6.70;99.90;;;6.23;100.00;100831.66;4168617;28;20037;-66
2021/11/04 06:23:41;;;;;;;5.40;3.15;;;6.70;99.90;;;6.35;100.00;100840.28;4168531;28;20018;-66
2021/11/04 06:25:42;;;;;;;4.18;3.20;;;6.70;99.90;;;6.29;100.00;100831.13;4168732;28;20034;-66
2021/11/04 06:27:42;;;;;;;3.85;3.03;;;6.80;99.90;;;6.34;100.00;100838.59;4168577;28;20033;-66
2021/11/04 06:29:43;;;;;;;3.17;2.83;;;6.80;99.90;;;6.28;100.00;100834.72;4168580;28;20041;-66
2021/11/04 06:31:44;;;;;;;5.40;3.42;;;6.80;99.90;;;6.29;100.00;100841.63;4168411;28;20064;-66
2021/11/04 06:33:45;;;;;;;4.15;2.78;;;6.80;99.90;;;6.38;100.00;100856.59;4168537;28;20040;-66
2021/11/04 06:35:46;;;;;;;2.92;2.42;;;6.80;99.90;;;6.34;100.00;100844.69;4168500;28;20101;-66
2021/11/04 06:37:47;;;;;;;5.68;3.13;;;6.80;99.90;;;6.46;100.00;100846.28;4168440;28;20025;-66
2021/11/04 06:39:48;;;;;;;5.28;2.92;;;6.80;99.90;;;6.52;100.00;100850.19;4168396;28;20113;-66
2021/11/04 06:41:49;;;;;;;4.15;2.63;;;6.80;99.90;;;6.42;100.00;100842.25;4168439;28;20029;-66
2021/11/04 06:43:50;;;;;;;6.88;2.67;;;6.80;99.90;;;6.56;100.00;100855.06;4168614;28;20025;-66
2021/11/04 06:45:52;;;;;;;7.57;2.85;;;6.80;99.90;;;6.41;100.00;100848.47;4168514;28;20029;-66
2021/11/04 06:47:53;;;;;;;3.10;2.63;;;6.80;99.90;;;6.30;100.00;100847.69;4168195;28;20029;-66
2021/11/04 06:49:57;;;;;;;4.88;2.88;;;6.80;99.90;;;6.41;100.00;100851.09;4168161;28;20038;-66
2021/11/04 06:51:58;;;;;;;5.13;3.28;;;6.80;99.90;;;6.36;100.00;100855.84;4167110;28;20038;-66
2021/11/04 06:54:03;;;;;;;4.78;3.38;;;6.80;99.90;;;6.48;100.00;100846.97;4161164;28;20523;-66
2021/11/04 06:56:05;;;;;;;5.65;3.15;;;6.70;99.90;;;6.36;100.00;100860.28;4164496;28;20034;-66
2021/11/04 06:58:14;;;;;;;3.33;2.70;;;6.70;99.90;;;6.46;100.00;100863.78;4167322;28;20421;-66
2021/11/04 07:00:16;;;;;;;4.90;3.38;;;6.80;99.90;;;6.53;100.00;100863.19;4160031;28;20027;-66
2021/11/04 07:02:47;;;;;;;5.15;3.33;;;6.80;99.90;;;6.49;100.00;100868.78;4166773;28;20056;-66
2021/11/04 07:04:50;;;;;;;5.15;3.40;;;6.80;99.90;;;6.54;100.00;100882.34;4167411;28;20099;-66
2021/11/04 07:07:01;;;;;;;6.55;3.85;;;6.80;99.90;;;6.50;100.00;100888.81;4166826;28;20033;-66
2021/11/04 07:09:06;;;;;;;9.85;4.18;;;6.90;99.90;;;6.46;100.00;100882.97;4165084;28;20029;-66
2021/11/04 07:11:09;;;;;;;7.30;3.63;;;6.90;99.90;;;6.46;100.00;100882.97;4169186;28;20033;-66
2021/11/04 07:13:12;;;;;;;4.97;3.25;;;6.90;99.90;;;6.43;100.00;100890.25;4171476;28;20040;-66
2021/11/04 07:15:18;;;;;;;5.28;3.22;;;6.80;99.90;;;6.52;100.00;100887.72;4169910;28;20037;-66
2021/11/04 07:17:18;;;;;;;4.65;2.85;;;6.80;99.90;;;6.49;100.00;100885.34;4169636;28;20026;-66
2021/11/04 07:19:20;;;;;;;3.10;2.80;;;6.80;99.90;;;6.46;100.00;100901.31;4171226;28;20041;-66
2021/11/04 07:21:33;;;;;;;4.97;2.70;;;6.90;99.90;;;6.46;100.00;100901.31;4171395;28;20025;-66
2021/11/04 07:23:43;;;;;;;3.45;2.80;;;6.90;99.90;;;6.48;100.00;100893.34;4171082;28;20030;-66
2021/11/04 07:25:48;;;;;;;6.63;3.17;;;6.90;99.90;;;6.52;100.00;100905.22;4171365;28;20555;-66
2021/11/04 07:28:03;;;;;;;6.70;3.15;;;7.00;99.90;;;6.52;100.00;100910.47;4169788;28;20149;-66
2021/11/04 07:30:09;;;;;;;6.55;2.40;;;7.00;99.90;;;6.57;100.00;100903.88;4167269;28;20029;-66
2021/11/04 07:32:15;;;;;;;2.88;2.63;;;7.00;99.90;;;6.53;100.00;100917.38;4171236;28;20104;-66
2021/11/04 07:34:18;;;;;;;2.83;2.50;;;7.10;99.90;;;6.49;100.00;100929.06;4170742;28;20026;-66
2021/11/04 07:36:20;;;;;;;3.17;2.33;;;7.00;99.90;;;6.66;100.00;100931.94;4171021;28;20440;-66
2021/11/04 07:38:22;;;;;;;2.63;2.42;;;7.10;99.90;;;6.62;100.00;100917.47;4171082;28;20029;-66
2021/11/04 07:40:26;;;;;;;2.80;2.40;;;7.10;99.90;;;6.68;100.00;100937.91;4171093;28;20075;-66
2021/11/04 07:42:27;;;;;;;3.15;2.67;;;7.20;99.90;;;6.66;100.00;100939.81;4171032;28;20029;-66
2021/11/04 07:44:28;;;;;;;2.75;2.50;;;7.20;99.90;;;6.61;100.00;100942.00;4171056;28;20033;-66
2021/11/04 07:46:30;;;;;;;3.95;2.80;;;7.10;99.90;;;6.60;100.00;100940.31;4170729;28;20022;-66
2021/11/04 07:48:31;;;;;;;9.70;2.88;;;7.10;99.90;;;6.60;100.00;100942.13;4170726;28;20033;-66
2021/11/04 07:50:33;;;;;;;4.28;2.80;;;7.10;99.90;;;6.60;100.00;100945.56;4170882;28;20053;-66
2021/11/04 07:52:36;;;;;;;4.85;2.60;;;7.20;99.90;;;6.63;100.00;100950.56;4170793;28;20029;-66
2021/11/04 07:54:37;;;;;;;4.67;2.50;;;7.10;99.90;;;6.60;100.00;100956.03;4170624;28;20040;-66
2021/11/04 07:56:38;;;;;;;3.30;2.55;;;7.20;99.90;;;6.63;100.00;100960.22;4170851;28;20026;-66
2021/11/04 07:58:39;;;;;;;5.72;2.40;;;7.10;99.90;;;6.62;100.00;100961.19;4170599;28;20057;-66
2021/11/04 08:00:41;;;;;;;5.00;2.40;;;7.10;99.90;;;6.64;100.00;100975.81;4170524;28;20034;-66
2021/11/04 08:02:43;;;;;;;3.13;2.40;;;7.10;99.90;;;6.67;100.00;100966.88;4170333;28;20079;-67
2021/11/04 08:04:44;;;;;;;3.92;2.63;;;7.20;99.90;;;6.67;100.00;100979.97;4170566;28;20021;-66
2021/11/04 08:06:45;;;;;;;3.70;2.55;;;7.10;99.90;;;6.66;100.00;100971.28;4170535;28;20028;-67
2021/11/04 08:08:46;;;;;;;2.55;2.35;;;7.20;99.90;;;6.66;100.00;100987.00;4170532;28;20415;-66
2021/11/04 08:10:47;;;;;;;3.45;3.10;;;7.20;99.90;;;6.67;100.00;100988.66;4170535;28;20029;-66
2021/11/04 08:12:48;;;;;;;3.63;2.40;;;7.20;99.90;;;6.62;100.00;100993.47;4170633;28;20075;-66
2021/11/04 08:14:49;;;;;;;2.78;2.45;;;7.30;99.90;;;6.65;100.00;101001.09;4170350;28;20408;-66
2021/11/04 08:16:50;;;;;;;3.03;2.13;;;7.20;99.90;;;6.74;100.00;100998.66;4170530;28;20432;-66
2021/11/04 08:18:51;;;;;;;4.72;2.90;;;7.30;99.90;;;6.92;100.00;101007.66;4170043;28;20026;-66
2021/11/04 08:20:52;;;;;;;3.67;3.25;;;7.30;99.90;;;7.04;100.00;101014.50;4170461;28;20079;-66
2021/11/04 08:22:52;;;;;;;6.13;3.17;;;7.50;99.90;;;7.14;100.00;101018.00;4170382;28;20413;-66
2021/11/04 08:24:53;;;;;;;4.00;3.05;;;7.50;99.90;;;7.19;100.00;101006.19;4170397;28;20036;-66
2021/11/04 08:26:54;;;;;;;7.40;4.15;;;7.50;99.90;;;7.17;100.00;101002.03;4170398;28;20087;-66
2021/11/04 08:28:55;;;;;;;3.80;2.80;;;7.60;99.90;;;7.25;100.00;101010.09;4170344;28;20036;-66
2021/11/04 08:30:56;;;;;;;5.05;3.38;;;7.60;99.90;;;7.33;100.00;101026.03;4170294;28;20030;-66
2021/11/04 08:32:57;;;;;;;7.28;3.15;;;7.70;99.90;;;7.44;100.00;101018.06;4169903;28;20026;-66
2021/11/04 08:34:58;;;;;;;5.55;2.92;;;7.80;99.90;;;7.40;100.00;101015.84;4169802;28;20079;-66